Cortez, Colorado
Current Conditions -  °F | °C
As of 1:53 AM on Sunday 26 Oct 2014 (Local Time) from KCEZ Reporting Station
Clear Clear  
Wind Chill: 43°   Ceiling: Unl
Heat Index: 45°   Visibility: 10mi
Dew Point: 35°   Wind: 5mph
Humidity: 68%   Direction: 70°ENE
Pressure: 30.16"   Gusts: NA
Location:  37.35°N, 108.55°W
Report Text: KCEZ 260753Z AUTO 07004KT 10SM CLR 07/02 A3016 RMK AO2 SLP156 T00720017
Loading
Personal Weather Stations






























Interactive Weather Map
Tropical Storm Tracking
New forecast layout! Learn more

10-Day Weather Forecast

Advertisements
Track Severe Weather on mobile